Time;durP1;ratioP1;P1;durP2;ratioP2;P2;SDS_P1;SDS_P2;PMS_P1;PMS_P2;Temp;Humidity;BMP_temperature;BMP_pressure;BME280_temperature;BME280_humidity;BME280_pressure;Samples;Min_cycle;Max_cycle;Signal;HPM_P1;HPM_P2
2022/05/02 00:00:26;;;;;;;9.10;4.45;;;;;;;;;;5052834;28;20453;-72
2022/05/02 00:02:52;;;;;;;7.65;5.10;;;;;;;;;;5045284;28;20064;-72
2022/05/02 00:05:17;;;;;;;7.13;4.57;;;;;;;;;;5030840;28;20128;-72
2022/05/02 00:07:42;;;;;;;8.25;5.22;;;;;;;;;;5056640;28;20033;-71
2022/05/02 00:10:08;;;;;;;7.53;4.72;;;;;;;;;;5054911;28;20045;-72
2022/05/02 00:12:33;;;;;;;7.50;4.80;;;;;;;;;;5053871;28;20040;-71
2022/05/02 00:14:58;;;;;;;8.95;4.85;;;;;;;;;;5039931;28;20045;-70
2022/05/02 00:17:56;;;;;;;8.33;5.13;;;;;;;;;;5048238;28;20041;-71
2022/05/02 00:20:09;;;;;;;5.53;4.20;;;;;;;;;;5053955;28;20312;-72
2022/05/02 00:22:35;;;;;;;8.52;4.53;;;;;;;;;;5020819;28;20583;-71
2022/05/02 00:25:00;;;;;;;7.00;4.90;;;;;;;;;;5031660;28;20488;-71
2022/05/02 00:27:26;;;;;;;10.33;5.23;;;;;;;;;;5051324;28;20040;-73
2022/05/02 00:29:51;;;;;;;6.70;4.80;;;;;;;;;;5049612;28;20404;-73
2022/05/02 00:32:16;;;;;;;8.65;4.90;;;;;;;;;;5037910;28;20056;-72
2022/05/02 00:34:42;;;;;;;7.60;4.88;;;;;;;;;;5054602;28;20037;-73
2022/05/02 00:37:07;;;;;;;6.95;4.80;;;;;;;;;;5023741;28;20036;-71
2022/05/02 00:39:32;;;;;;;6.33;5.03;;;;;;;;;;5052729;28;20479;-72
2022/05/02 00:41:58;;;;;;;6.40;5.27;;;;;;;;;;5051730;28;20040;-72
2022/05/02 00:44:23;;;;;;;9.38;4.72;;;;;;;;;;5052874;28;20277;-72
2022/05/02 00:46:49;;;;;;;9.90;4.97;;;;;;;;;;5051096;28;20044;-72
2022/05/02 00:49:15;;;;;;;7.28;5.03;;;;;;;;;;5052742;28;20036;-72
2022/05/02 00:51:40;;;;;;;7.68;5.50;;;;;;;;;;5049522;28;20116;-72
2022/05/02 00:54:05;;;;;;;6.30;5.00;;;;;;;;;;5028436;28;20033;-73
2022/05/02 00:56:31;;;;;;;9.23;5.13;;;;;;;;;;5026980;28;20041;-73
2022/05/02 00:58:56;;;;;;;8.15;4.90;;;;;;;;;;5020168;28;20757;-73
2022/05/02 01:01:22;;;;;;;7.80;4.85;;;;;;;;;;5052021;28;20099;-72
2022/05/02 01:03:47;;;;;;;7.13;5.28;;;;;;;;;;5053003;28;20041;-71
2022/05/02 01:08:56;;;;;;;7.97;5.22;;;;;;;;;;5052526;28;20119;-72
2022/05/02 01:11:21;;;;;;;6.85;5.20;;;;;;;;;;5053213;28;20116;-74
2022/05/02 01:13:48;;;;;;;10.20;5.27;;;;;;;;;;5034728;28;20064;-73
2022/05/02 01:16:17;;;;;;;7.80;4.80;;;;;;;;;;5044658;28;20311;-72
2022/05/02 01:18:44;;;;;;;8.20;4.82;;;;;;;;;;5060905;28;20029;-72
2022/05/02 01:21:10;;;;;;;11.10;5.03;;;;;;;;;;5054935;28;20458;-71
2022/05/02 01:23:35;;;;;;;7.00;5.18;;;;;;;;;;5052616;28;20037;-71
2022/05/02 01:26:00;;;;;;;6.27;5.00;;;;;;;;;;5052034;28;20475;-74
2022/05/02 01:28:25;;;;;;;7.43;5.07;;;;;;;;;;5016717;28;20271;-72
2022/05/02 01:30:51;;;;;;;8.95;5.47;;;;;;;;;;5034147;28;20312;-72
2022/05/02 01:33:16;;;;;;;6.70;4.97;;;;;;;;;;5027881;28;20045;-73
2022/05/02 01:35:41;;;;;;;8.25;5.22;;;;;;;;;;5047089;28;20132;-72
2022/05/02 01:38:06;;;;;;;7.77;5.27;;;;;;;;;;5016044;28;20124;-71
2022/05/02 01:40:32;;;;;;;7.57;4.80;;;;;;;;;;5051434;28;20274;-73
2022/05/02 01:42:57;;;;;;;7.30;5.57;;;;;;;;;;5046340;28;20116;-73
2022/05/02 01:45:22;;;;;;;8.73;5.40;;;;;;;;;;5032322;28;20259;-73
2022/05/02 01:47:47;;;;;;;6.77;5.60;;;;;;;;;;5050312;28;20483;-72
2022/05/02 01:50:13;;;;;;;8.77;5.20;;;;;;;;;;5052016;28;20432;-72
2022/05/02 01:52:38;;;;;;;8.73;5.35;;;;;;;;;;5052193;28;20285;-72
2022/05/02 01:55:04;;;;;;;10.02;5.70;;;;;;;;;;5050982;28;20037;-71
2022/05/02 01:57:29;;;;;;;7.53;5.53;;;;;;;;;;5045472;28;20060;-71
2022/05/02 01:59:54;;;;;;;10.88;5.50;;;;;;;;;;5031250;28;20041;-72
2022/05/02 02:02:20;;;;;;;8.25;5.32;;;;;;;;;;5029269;28;20127;-72
2022/05/02 02:07:29;;;;;;;10.98;5.43;;;;;;;;;;5043847;28;20278;-71
2022/05/02 02:09:54;;;;;;;7.80;5.33;;;;;;;;;;5044390;28;20048;-71
2022/05/02 02:12:19;;;;;;;13.10;5.83;;;;;;;;;;5034146;28;20279;-73
2022/05/02 02:14:44;;;;;;;8.73;5.40;;;;;;;;;;5031578;28;20038;-72
2022/05/02 02:17:10;;;;;;;7.57;5.85;;;;;;;;;;5045231;28;20041;-73
2022/05/02 02:19:35;;;;;;;8.53;5.40;;;;;;;;;;5026654;28;20065;-73
2022/05/02 02:22:16;;;;;;;11.63;5.80;;;;;;;;;;5049112;28;21028;-74
2022/05/02 02:24:42;;;;;;;6.85;5.30;;;;;;;;;;5046274;28;20040;-74
2022/05/02 02:27:08;;;;;;;7.45;5.35;;;;;;;;;;5062172;28;20034;-72
2022/05/02 02:29:33;;;;;;;8.77;5.50;;;;;;;;;;5047172;28;20045;-72
2022/05/02 02:31:58;;;;;;;10.20;5.32;;;;;;;;;;5044638;28;20614;-72
2022/05/02 02:34:24;;;;;;;8.97;5.67;;;;;;;;;;5028460;28;20459;-73
2022/05/02 02:36:49;;;;;;;8.98;5.43;;;;;;;;;;5032129;28;20274;-72
2022/05/02 02:39:14;;;;;;;10.47;5.37;;;;;;;;;;5048809;28;20076;-73
2022/05/02 02:41:39;;;;;;;11.23;6.00;;;;;;;;;;5030232;28;20278;-74
2022/05/02 02:44:05;;;;;;;7.17;5.43;;;;;;;;;;5047769;28;20487;-72
2022/05/02 02:46:30;;;;;;;6.25;5.03;;;;;;;;;;5032098;28;20293;-74
2022/05/02 02:48:55;;;;;;;11.27;5.50;;;;;;;;;;5016036;28;20041;-73
2022/05/02 02:51:20;;;;;;;7.78;5.80;;;;;;;;;;5035223;28;20092;-70
2022/05/02 02:53:46;;;;;;;7.97;5.00;;;;;;;;;;5035723;28;20064;-70
2022/05/02 02:56:11;;;;;;;8.75;5.35;;;;;;;;;;5040538;28;20346;-71
2022/05/02 02:58:36;;;;;;;9.17;4.87;;;;;;;;;;5046040;28;20133;-71
2022/05/02 03:01:02;;;;;;;7.07;5.35;;;;;;;;;;5050632;28;21003;-71
2022/05/02 03:03:28;;;;;;;10.38;5.50;;;;;;;;;;5040328;28;20049;-72
2022/05/02 03:06:02;;;;;;;6.75;5.03;;;;;;;;;;5058562;28;20082;-73
2022/05/02 03:08:27;;;;;;;11.50;5.75;;;;;;;;;;5028727;28;20033;-71
2022/05/02 03:10:54;;;;;;;7.55;5.18;;;;;;;;;;5040696;28;20037;-71
2022/05/02 03:13:19;;;;;;;7.90;5.25;;;;;;;;;;5024895;28;20038;-71
2022/05/02 03:15:45;;;;;;;9.38;5.22;;;;;;;;;;5032296;28;20541;-71
2022/05/02 03:18:10;;;;;;;7.53;5.33;;;;;;;;;;5030466;28;20037;-72
2022/05/02 03:20:35;;;;;;;8.67;5.60;;;;;;;;;;5051288;28;20258;-71
2022/05/02 03:23:00;;;;;;;7.53;5.53;;;;;;;;;;5024313;28;20607;-72
2022/05/02 03:25:26;;;;;;;9.73;5.13;;;;;;;;;;5037757;28;20294;-72
2022/05/02 03:27:51;;;;;;;10.35;5.50;;;;;;;;;;5046101;28;20843;-72
2022/05/02 03:30:16;;;;;;;6.20;5.13;;;;;;;;;;5045486;28;20495;-73
2022/05/02 03:32:41;;;;;;;8.80;5.22;;;;;;;;;;5050168;28;20469;-72
2022/05/02 03:35:07;;;;;;;7.87;5.67;;;;;;;;;;5043826;28;20498;-73
2022/05/02 03:37:32;;;;;;;10.88;5.82;;;;;;;;;;5042644;28;20290;-73
2022/05/02 03:39:58;;;;;;;7.28;5.40;;;;;;;;;;5046440;28;20034;-72
2022/05/02 03:42:23;;;;;;;8.10;5.30;;;;;;;;;;5049249;28;20037;-72
2022/05/02 03:44:48;;;;;;;11.32;5.60;;;;;;;;;;5031309;28;20036;-73
2022/05/02 03:47:14;;;;;;;9.13;5.30;;;;;;;;;;5048087;28;20053;-72
2022/05/02 03:49:39;;;;;;;8.07;5.50;;;;;;;;;;5049247;28;20037;-72
2022/05/02 03:52:05;;;;;;;9.18;5.60;;;;;;;;;;5028805;28;20103;-71
2022/05/02 03:54:30;;;;;;;11.57;5.57;;;;;;;;;;5032378;28;20041;-73
2022/05/02 03:56:56;;;;;;;10.73;5.75;;;;;;;;;;5046135;28;20044;-72
2022/05/02 03:59:22;;;;;;;8.27;5.73;;;;;;;;;;5030498;28;20124;-71
2022/05/02 04:01:47;;;;;;;10.77;5.72;;;;;;;;;;5039590;28;20449;-73
2022/05/02 04:04:12;;;;;;;43.67;19.65;;;;;;;;;;5048477;28;20037;-75
2022/05/02 04:06:38;;;;;;;10.68;7.38;;;;;;;;;;5029588;28;20041;-73
2022/05/02 04:09:03;;;;;;;12.47;5.60;;;;;;;;;;5053358;28;20078;-72
2022/05/02 04:11:29;;;;;;;11.63;5.80;;;;;;;;;;5049535;28;21009;-72
2022/05/02 04:13:54;;;;;;;9.20;6.00;;;;;;;;;;5050802;28;20056;-72
2022/05/02 04:16:20;;;;;;;11.55;6.00;;;;;;;;;;5048096;28;20040;-73
2022/05/02 04:18:45;;;;;;;10.18;5.47;;;;;;;;;;5051444;28;20064;-73
2022/05/02 04:21:12;;;;;;;10.10;5.45;;;;;;;;;;5055173;28;20033;-73
2022/05/02 04:23:38;;;;;;;11.57;6.03;;;;;;;;;;5042760;28;20032;-73
2022/05/02 04:26:03;;;;;;;13.50;5.87;;;;;;;;;;5050425;28;20510;-74
2022/05/02 04:28:28;;;;;;;10.82;5.65;;;;;;;;;;5044316;28;20274;-73
2022/05/02 04:30:54;;;;;;;14.40;5.70;;;;;;;;;;5053852;28;20390;-73
2022/05/02 04:33:19;;;;;;;8.70;5.45;;;;;;;;;;5051474;28;20289;-73
2022/05/02 04:35:44;;;;;;;10.75;6.00;;;;;;;;;;5051510;28;20037;-72
2022/05/02 04:38:10;;;;;;;8.98;5.75;;;;;;;;;;5054408;28;20564;-72
2022/05/02 04:40:35;;;;;;;9.13;5.93;;;;;;;;;;5060627;28;20033;-71
2022/05/02 04:43:00;;;;;;;17.67;5.63;;;;;;;;;;5049904;28;20766;-71
2022/05/02 04:45:26;;;;;;;18.48;5.82;;;;;;;;;;5051474;28;20443;-73
2022/05/02 04:47:51;;;;;;;11.82;5.35;;;;;;;9.67;nan;100609.34;5027490;28;20399;-73
2022/05/02 04:50:16;;;;;;;10.93;4.65;;;;;;;;;;5034155;28;20129;-72
2022/05/02 04:52:42;;;;;;;8.67;4.90;;;;;;;;;;5047762;28;20455;-72
2022/05/02 04:55:07;;;;;;;14.00;5.28;;;;;;;;;;5053576;28;20285;-71
2022/05/02 04:57:33;;;;;;;14.68;5.57;;;;;;;;;;5052946;28;20044;-73
2022/05/02 04:59:58;;;;;;;15.85;5.45;;;;;;;;;;5053714;28;20044;-73
2022/05/02 05:02:24;;;;;;;9.07;5.20;;;;;;;;;;5046660;28;20037;-73
2022/05/02 05:04:49;;;;;;;12.90;5.00;;;;;;;;;;5053230;28;20286;-72
2022/05/02 05:07:14;;;;;;;12.97;5.13;;;;;;;;;;5051056;28;20048;-72
2022/05/02 05:09:39;;;;;;;9.50;5.27;;;;;;;;;;5068243;28;20365;-73
2022/05/02 05:12:17;;;;;;;12.23;4.93;;;;;;;;;;5072986;28;20892;-73
2022/05/02 05:17:49;;;;;;;15.00;5.00;;;;;;;;;;5071430;28;20037;-72
2022/05/02 05:20:17;;;;;;;16.40;5.45;;;;;;;;;;5030386;28;20128;-73
2022/05/02 05:22:49;;;;;;;14.27;4.25;;;;;;;;;;5049192;28;20067;-72
2022/05/02 05:25:27;;;;;;;10.60;4.68;;;;;;;;;;5042103;28;20036;-73
2022/05/02 05:28:13;;;;;;;14.80;5.88;;;;;;;;;;5058903;28;20049;-73
2022/05/02 05:30:42;;;;;;;13.70;5.10;;;;;;;;;;5038908;28;20096;-72
2022/05/02 05:33:08;;;;;;;13.73;5.18;;;;;;;;;;5057274;28;20554;-75
2022/05/02 05:35:52;;;;;;;14.77;4.68;;;;;;;;;;5024255;28;20132;-72
2022/05/02 05:38:24;;;;;;;14.20;4.35;;;;;;;;;;5035499;28;20037;-71
2022/05/02 05:40:56;;;;;;;9.07;4.47;;;;;;;;;;5046234;28;20033;-73
2022/05/02 05:43:41;;;;;;;8.02;5.22;;;;;;;;;;5042272;28;20036;-73
2022/05/02 05:46:19;;;;;;;8.20;4.85;;;;;;;;;;5030180;28;20037;-72
2022/05/02 05:48:58;;;;;;;7.80;5.15;;;;;;;;;;5040043;28;20063;-75
2022/05/02 05:51:39;;;;;;;6.43;4.75;;;;;;;;;;5050081;28;20128;-75
2022/05/02 05:54:19;;;;;;;8.40;4.25;;;;;;;;;;5048694;28;20060;-73
2022/05/02 05:56:44;;;;;;;10.93;4.45;;;;;;;;;;5032000;28;20123;-73
2022/05/02 05:59:10;;;;;;;11.30;4.90;;;;;;;;;;5025482;28;20147;-75
2022/05/02 06:01:50;;;;;;;8.63;4.72;;;;;;;;;;5050563;28;20040;-75
2022/05/02 06:04:16;;;;;;;9.38;5.43;;;;;;;;;;5047453;28;20495;-75
2022/05/02 06:06:41;;;;;;;9.35;5.50;;;;;;;;;;5037550;28;20044;-74
2022/05/02 06:09:12;;;;;;;16.90;5.70;;;;;;;;;;5049301;28;20405;-74
2022/05/02 06:11:40;;;;;;;13.43;6.72;;;;;;;;;;5030988;28;20462;-76
2022/05/02 06:14:06;;;;;;;16.45;6.88;;;;;;;11.31;nan;100604.41;5049701;28;20063;-74
2022/05/02 06:19:17;;;;;;;13.55;7.32;;;;;;;;;;5044113;28;20115;-74
2022/05/02 06:21:43;;;;;;;18.15;7.32;;;;;;;;;;5042808;28;20072;-74
2022/05/02 06:24:11;;;;;;;11.50;5.82;;;;;;;11.61;nan;100603.56;5043425;28;20047;-75
2022/05/02 06:26:38;;;;;;;13.35;5.90;;;;;;;11.67;nan;100611.38;5047017;28;20060;-74
2022/05/02 06:29:05;;;;;;;9.40;5.45;;;;;;;;;;5048054;28;20598;-74
2022/05/02 06:31:31;;;;;;;15.75;5.40;;;;;;;;;;5030969;28;20045;-74
2022/05/02 06:33:57;;;;;;;15.27;5.03;;;;;;;;;;5051530;28;20562;-73
2022/05/02 06:37:02;;;;;;;14.57;4.85;;;;;;;;;;5023592;28;20106;-74
2022/05/02 06:39:27;;;;;;;12.48;4.63;;;;;;;;;;4976109;28;20069;-73
2022/05/02 06:41:52;;;;;;;11.23;5.10;;;;;;;;;;4983150;28;20547;-75
2022/05/02 06:44:30;;;;;;;8.00;4.60;;;;;;;12.29;nan;100603.06;4972916;28;20064;-74
2022/05/02 06:47:01;;;;;;;13.27;5.85;;;;;;;;;;4970022;28;20050;-75
2022/05/02 06:49:26;;;;;;;13.43;6.78;;;;;;;;;;4971444;28;20034;-74
2022/05/02 06:51:55;;;;;;;24.02;7.43;;;;;;;;;;4970363;28;20125;-74
2022/05/02 06:54:29;;;;;;;11.80;6.15;;;;;;;;;;4987854;28;20461;-74
2022/05/02 06:57:14;;;;;;;9.68;5.18;;;;;;;;;;4987627;28;20038;-74
2022/05/02 06:59:46;;;;;;;7.05;5.18;;;;;;;;;;4988230;28;20044;-73
2022/05/02 07:02:28;;;;;;;11.55;4.95;;;;;;;;;;4987841;28;20054;-75
2022/05/02 07:04:55;;;;;;;10.13;4.80;;;;;;;;;;4970183;28;20069;-74
2022/05/02 07:07:47;;;;;;;8.70;4.57;;;;;;;;;;4968386;28;20043;-74
2022/05/02 07:10:13;;;;;;;9.68;4.25;;;;;;;;;;4999566;28;20441;-74
2022/05/02 07:12:40;;;;;;;7.88;4.55;;;;;;;;;;5045478;28;20045;-74
2022/05/02 07:15:11;;;;;;;11.32;4.40;;;;;;;;;;5030106;28;20086;-74
2022/05/02 07:17:42;;;;;;;12.93;5.30;;;;;;;;;;5050714;28;20032;-73
2022/05/02 07:20:19;;;;;;;5.93;4.38;;;;;;;;;;5044890;28;20394;-74
2022/05/02 07:23:08;;;;;;;6.75;4.30;;;;;;;;;;5041089;28;20037;-74
2022/05/02 07:25:35;;;;;;;12.50;4.57;;;;;;;;;;4976368;28;20077;-74
2022/05/02 07:28:19;;;;;;;5.90;4.20;;;;;;;;;;4979728;28;20084;-72
2022/05/02 07:30:45;;;;;;;11.90;4.30;;;;;;;;;;4989433;28;20077;-72
2022/05/02 07:33:11;;;;;;;6.97;3.95;;;;;;;;;;4994114;28;20043;-74
2022/05/02 07:35:37;;;;;;;9.18;4.82;;;;;;;;;;4976603;28;20038;-74
2022/05/02 07:38:02;;;;;;;10.88;4.60;;;;;;;;;;4982406;28;20034;-74
2022/05/02 07:40:28;;;;;;;12.95;4.53;;;;;;;;;;4961067;28;20046;-74
2022/05/02 07:42:54;;;;;;;6.40;4.15;;;;;;;;;;4974910;28;20141;-73
2022/05/02 07:45:24;;;;;;;10.48;4.10;;;;;;;;;;4962349;28;20157;-74
2022/05/02 07:47:52;;;;;;;7.57;3.85;;;;;;;;;;4961330;28;20042;-74
2022/05/02 07:50:19;;;;;;;7.22;3.97;;;;;;;;;;4977450;28;20165;-73
2022/05/02 07:52:45;;;;;;;5.32;3.60;;;;;;;;;;4978267;28;20135;-74
2022/05/02 07:55:10;;;;;;;8.55;3.63;;;;;;;;;;4963808;28;20042;-74
2022/05/02 07:57:38;;;;;;;10.48;3.83;;;;;;;;;;4978382;28;20063;-74
2022/05/02 08:00:04;;;;;;;8.32;3.67;;;;;;;;;;4977729;28;20042;-74
2022/05/02 08:02:30;;;;;;;8.07;3.25;;;;;;;;;;5009666;28;20057;-72
2022/05/02 08:04:56;;;;;;;7.00;3.58;;;;;;;;;;5052004;28;20037;-72
2022/05/02 08:07:24;;;;;;;8.15;3.55;;;;;;;;;;5053203;28;20043;-72
2022/05/02 08:10:04;;;;;;;6.22;3.00;;;;;;;;;;5048722;28;20119;-72
2022/05/02 08:12:33;;;;;;;6.00;3.33;;;;;;;;;;5041805;28;20174;-72
2022/05/02 08:15:11;;;;;;;8.57;3.67;;;;;;;;;;5042044;28;20040;-74
2022/05/02 08:17:40;;;;;;;6.95;3.40;;;;;;;;;;5019193;28;20075;-76
2022/05/02 08:20:15;;;;;;;9.90;4.00;;;;;;;;;;5041561;28;20033;-73
2022/05/02 08:28:40;;;;;;;7.53;3.47;;;;;;;;;;5075278;28;20045;-73
2022/05/02 08:31:17;;;;;;;13.30;3.40;;;;;;;;;;5059532;28;20026;-74
2022/05/02 08:34:02;;;;;;;5.72;2.60;;;;;;;;;;5058251;28;20026;-74
2022/05/02 08:36:54;;;;;;;4.50;2.90;;;;;;;;;;5076139;28;20096;-74
2022/05/02 08:39:25;;;;;;;7.93;2.80;;;;;;;;;;5075410;28;20043;-73
2022/05/02 08:42:02;;;;;;;5.47;3.17;;;;;;;;;;5076911;28;20100;-74
2022/05/02 08:44:46;;;;;;;6.82;3.03;;;;;;;;;;5032856;28;20041;-75
2022/05/02 08:47:31;;;;;;;4.88;2.60;;;;;;;;;;5045898;28;20037;-75
2022/05/02 08:49:57;;;;;;;7.80;2.60;;;;;;;;;;5057724;28;20391;-75
2022/05/02 08:52:22;;;;;;;6.97;2.63;;;;;;;;;;5068548;28;20033;-74
2022/05/02 08:55:06;;;;;;;6.10;2.60;;;;;;;;;;5063023;28;20372;-74
2022/05/02 08:57:41;;;;;;;7.50;2.30;;;;;;;;;;5063687;28;20052;-73
2022/05/02 09:00:24;;;;;;;8.40;2.40;;;;;;;;;;5036868;28;20430;-75
2022/05/02 09:03:02;;;;;;;5.47;2.38;;;;;;;;;;5043024;28;20033;-74
2022/05/02 09:05:44;;;;;;;4.50;2.20;;;;;;;;;;5054446;28;20033;-73
2022/05/02 09:08:28;;;;;;;4.57;2.30;;;;;;;;;;5036177;28;20033;-73
2022/05/02 09:11:12;;;;;;;3.17;2.15;;;;;;;;;;5054155;28;20029;-74
2022/05/02 09:13:46;;;;;;;5.50;2.45;;;;;;;;;;5031787;28;20384;-73
2022/05/02 09:16:33;;;;;;;8.10;2.60;;;;;;;;;;5051377;28;20033;-73
2022/05/02 09:19:28;;;;;;;3.85;2.10;;;;;;;;;;5037127;28;20039;-74
2022/05/02 09:21:56;;;;;;;4.20;2.35;;;;;;;;;;5010644;28;20050;-74
2022/05/02 09:24:30;;;;;;;5.75;2.47;;;;;;;18.51;nan;100489.38;4994131;28;20034;-73
2022/05/02 09:27:02;;;;;;;5.40;2.40;;;;;;;;;;4993008;28;20182;-73
2022/05/02 09:30:12;;;;;;;3.60;2.00;;;;;;;18.65;nan;100501.00;4992656;28;20563;-74
2022/05/02 09:32:37;;;;;;;5.00;2.25;;;;;;;;;;4986088;28;20575;-73
2022/05/02 09:35:03;;;;;;;5.07;2.10;;;;;;;;;;5006059;28;20053;-73
2022/05/02 09:37:37;;;;;;;10.13;2.63;;;;;;;;;;5004928;28;20089;-75
2022/05/02 09:40:06;;;;;;;2.60;1.83;;;;;;;18.90;nan;100529.41;5006107;28;20057;-73
2022/05/02 09:42:32;;;;;;;;;;;;;;;19.07;nan;100497.00;5007196;28;20109;-73
2022/05/02 09:51:38;;;;;;;7.07;2.03;;;;;;;;;;5006301;28;20103;-72
2022/05/02 09:57:17;;;;;;;3.25;2.40;;;;;;;19.46;nan;100472.09;5005069;28;20043;-74
2022/05/02 10:02:41;;;;;;;4.68;2.63;;;;;;;19.44;nan;100428.88;5045094;28;20045;-76
2022/05/02 10:05:07;;;;;;;5.10;2.05;;;;;;;19.41;nan;100417.94;5043091;28;20037;-75
2022/05/02 10:07:46;;;;;;;4.75;2.13;;;;;;;19.46;nan;100473.97;5047994;28;20045;-74
2022/05/02 10:10:21;;;;;;;5.25;2.00;;;;;;;;;;5048198;28;20040;-75
2022/05/02 10:12:49;;;;;;;3.92;2.28;;;;;;;19.49;nan;100454.69;5050541;28;20208;-74
2022/05/02 10:15:47;;;;;;;4.18;2.10;;;;;;;19.34;nan;100431.63;5019552;28;20201;-75
2022/05/02 10:18:24;;;;;;;2.63;1.85;;;;;;;19.50;nan;100454.44;5035203;28;20036;-75
2022/05/02 10:21:08;;;;;;;3.85;1.98;;;;;;;19.58;nan;100447.66;5022476;28;20119;-75
2022/05/02 10:24:00;;;;;;;2.22;2.03;;;;;;;19.69;nan;100441.16;5039040;28;20045;-75
2022/05/02 10:26:41;;;;;;;10.60;2.72;;;;;;;19.77;nan;100447.75;5052281;28;20056;-76
2022/05/02 10:29:07;;;;;;;4.75;2.10;;;;;;;19.76;nan;100440.84;5047322;28;20085;-75
2022/05/02 10:31:34;;;;;;;5.93;2.15;;;;;;;;;;5050717;28;20036;-75
2022/05/02 10:34:02;;;;;;;2.83;1.90;;;;;;;19.84;nan;100450.09;5037547;28;20219;-74
2022/05/02 10:36:35;;;;;;;5.67;2.07;;;;;;;19.87;nan;100428.13;5049245;28;20052;-75
2022/05/02 10:39:28;;;;;;;2.20;1.77;;;;;;;19.92;nan;100422.72;5049131;28;20029;-74
2022/05/02 10:41:58;;;;;;;2.78;2.08;;;;;;;19.97;nan;100414.66;5050448;28;20045;-74
2022/05/02 10:44:28;;;;;;;4.32;1.90;;;;;;;20.02;nan;100435.19;5035745;28;20474;-75
2022/05/02 10:47:02;;;;;;;3.00;1.63;;;;;;;19.98;nan;100429.59;5039006;28;20041;-77
2022/05/02 10:49:56;;;;;;;3.83;2.00;;;;;;;19.99;nan;100425.84;5069222;28;20060;-74
2022/05/02 10:52:49;;;;;;;4.05;2.05;;;;;;;20.10;nan;100442.56;5057350;28;20035;-77
2022/05/02 10:55:33;;;;;;;2.60;1.80;;;;;;;;;;5046540;28;20107;-76
2022/05/02 10:58:03;;;;;;;3.28;1.85;;;;;;;;;;5017301;28;20406;-75
2022/05/02 11:00:31;;;;;;;3.17;1.73;;;;;;;20.11;nan;100428.09;5032263;28;20041;-75
2022/05/02 11:03:28;;;;;;;3.00;1.98;;;;;;;20.13;nan;100434.75;5032916;28;20037;-76
2022/05/02 11:05:59;;;;;;;2.92;1.88;;;;;;;20.17;nan;100422.41;5044111;28;20045;-73
2022/05/02 11:08:44;;;;;;;4.47;2.22;;;;;;;20.26;nan;100449.28;5047996;28;20044;-76
2022/05/02 11:11:11;;;;;;;3.55;2.10;;;;;;;;;;5053936;28;20029;-74
2022/05/02 11:13:43;;;;;;;4.25;2.17;;;;;;;;;;5038157;28;20411;-75
2022/05/02 11:16:18;;;;;;;3.65;1.90;;;;;;;20.33;nan;100425.66;5014961;28;20119;-76
2022/05/02 11:22:15;;;;;;;3.33;2.15;;;;;;;20.53;nan;100456.66;5034276;28;20037;-75
2022/05/02 11:25:20;;;;;;;2.55;2.00;;;;;;;20.58;nan;100416.47;5044435;28;20040;-74
2022/05/02 11:27:52;;;;;;;5.68;1.80;;;;;;;20.60;nan;100410.84;5044818;28;20040;-76
2022/05/02 11:30:23;;;;;;;3.22;2.00;;;;;;;20.63;nan;100414.81;5051441;28;20048;-74
2022/05/02 11:33:03;;;;;;;3.45;1.90;;;;;;;20.72;nan;100413.06;5037832;28;20037;-74
2022/05/02 11:35:30;;;;;;;4.00;2.00;;;;;;;20.71;nan;100398.09;5048308;28;20037;-77
2022/05/02 11:38:05;;;;;;;4.65;1.80;;;;;;;20.70;nan;100412.56;5051838;28;20475;-75
2022/05/02 11:40:35;;;;;;;5.15;2.55;;;;;;;20.49;nan;100407.50;5035667;28;20049;-74
2022/05/02 11:43:03;;;;;;;2.65;1.80;;;;;;;20.42;nan;100455.22;5056489;28;20122;-74
2022/05/02 11:45:43;;;;;;;2.88;1.90;;;;;;;20.40;nan;100407.38;5050863;28;20045;-75
2022/05/02 11:48:20;;;;;;;3.72;1.85;;;;;;;20.42;nan;100401.72;5057497;28;20033;-76
2022/05/02 11:50:47;;;;;;;4.00;1.70;;;;;;;20.46;nan;100436.72;5046850;28;20032;-75
2022/05/02 11:53:15;;;;;;;2.28;1.65;;;;;;;20.47;nan;100452.50;5055293;28;20029;-73
2022/05/02 11:55:42;;;;;;;2.85;1.85;;;;;;;20.51;nan;100397.31;5038416;28;20028;-74
2022/05/02 11:58:45;;;;;;;4.30;1.90;;;;;;;20.49;nan;100370.03;5054128;28;20550;-72
2022/05/02 12:01:15;;;;;;;4.70;2.13;;;;;;;20.58;nan;100418.38;4993366;28;20068;-73
2022/05/02 12:03:52;;;;;;;5.18;2.10;;;;;;;20.76;nan;100371.28;5048784;28;20505;-73
2022/05/02 12:06:29;;;;;;;4.88;2.20;;;;;;;20.84;nan;100370.59;5047136;28;20036;-72
2022/05/02 12:08:54;;;;;;;2.33;1.85;;;;;;;20.87;nan;100364.63;5049180;28;20037;-73
2022/05/02 12:11:20;;;;;;;2.63;2.03;;;;;;;20.89;nan;100402.63;5053745;28;20493;-74
2022/05/02 12:13:47;;;;;;;3.03;2.08;;;;;;;21.02;nan;100361.72;5050101;28;20055;-74
2022/05/02 12:16:17;;;;;;;2.33;1.80;;;;;;;21.10;nan;100402.28;5064468;28;20013;-73
2022/05/02 12:18:54;;;;;;;3.78;1.67;;;;;;;21.17;nan;100333.84;5072865;28;20033;-72
2022/05/02 12:21:45;;;;;;;3.05;1.90;;;;;;;21.25;nan;100354.56;5061027;28;20120;-72
2022/05/02 12:24:14;;;;;;;3.80;2.10;;;;;;;21.32;nan;100372.91;5068568;28;20044;-73
2022/05/02 12:26:51;;;;;;;4.15;2.00;;;;;;;21.36;nan;100359.75;5076974;28;20045;-73
2022/05/02 12:29:19;;;;;;;3.03;2.08;;;;;;;21.43;nan;100362.84;5074642;28;20060;-73
2022/05/02 12:31:56;;;;;;;2.67;2.00;;;;;;;21.50;nan;100351.72;5078189;28;20024;-73
2022/05/02 12:34:23;;;;;;;3.60;1.80;;;;;;;;;;5076465;28;20041;-74
2022/05/02 12:36:56;;;;;;;3.20;1.98;;;;;;;21.63;nan;100332.16;5073967;28;20033;-73
2022/05/02 12:39:25;;;;;;;6.70;2.20;;;;;;;21.75;nan;100353.09;5070719;28;20084;-73
2022/05/02 12:42:09;;;;;;;6.45;2.00;;;;;;;21.73;nan;100341.88;5071194;28;20059;-73
2022/05/02 12:44:47;;;;;;;6.35;2.17;;;;;;;21.70;nan;100343.25;5071793;28;20036;-74
2022/05/02 12:47:22;;;;;;;3.92;1.80;;;;;;;21.71;nan;100409.16;5059280;28;20036;-72
2022/05/02 12:50:04;;;;;;;6.57;1.70;;;;;;;21.70;nan;100350.50;5058723;28;20059;-72
2022/05/02 12:52:32;;;;;;;6.20;1.80;;;;;;;21.65;nan;100319.25;5047003;28;20037;-74
2022/05/02 12:54:57;;;;;;;3.17;1.88;;;;;;;;;;5055369;28;20498;-76
2022/05/02 13:00:40;;;;;;;4.80;1.90;;;;;;;21.66;nan;100374.44;5055677;28;20041;-72
2022/05/02 13:03:18;;;;;;;3.92;1.75;;;;;;;21.74;nan;100328.16;5052725;28;20036;-73
2022/05/02 13:05:46;;;;;;;2.33;1.83;;;;;;;21.78;nan;100339.06;5029561;28;20028;-73
2022/05/02 13:08:16;;;;;;;5.93;2.00;;;;;;;21.76;nan;100384.94;5051761;28;20033;-73
2022/05/02 13:10:44;;;;;;;2.70;1.83;;;;;;;21.78;nan;100307.69;5042447;28;20324;-74
2022/05/02 13:13:12;;;;;;;3.10;1.85;;;;;;;21.72;nan;100321.53;5051697;28;20044;-70
2022/05/02 13:15:49;;;;;;;4.78;1.70;;;;;;;21.71;nan;100318.03;5050184;28;21140;-73
2022/05/02 13:18:18;;;;;;;2.40;1.83;;;;;;;21.70;nan;100337.13;5037438;28;20029;-74
2022/05/02 13:20:58;;;;;;;4.38;1.63;;;;;;;21.73;nan;100331.16;5034594;28;20041;-72
2022/05/02 13:23:36;;;;;;;5.55;1.73;;;;;;;21.75;nan;100315.56;5049785;28;20479;-70
2022/05/02 13:26:34;;;;;;;3.60;1.70;;;;;;;21.73;nan;100334.59;5035241;28;20037;-71
2022/05/02 13:29:14;;;;;;;3.05;1.75;;;;;;;21.64;nan;100323.00;5050071;28;20037;-72
2022/05/02 13:31:48;;;;;;;4.80;1.80;;;;;;;21.70;nan;100332.53;5049177;28;20039;-72
2022/05/02 13:34:31;;;;;;;2.05;1.60;;;;;;;21.73;nan;100331.16;5051896;28;20105;-73
2022/05/02 13:37:14;;;;;;;2.58;1.65;;;;;;;21.60;nan;100354.19;5021437;28;20037;-73
2022/05/02 13:39:47;;;;;;;3.35;2.10;;;;;;;21.61;nan;100328.97;5050858;28;20033;-73
2022/05/02 13:42:52;;;;;;;5.57;1.75;;;;;;;21.57;nan;100318.09;5032171;28;20344;-73
2022/05/02 13:45:46;;;;;;;5.82;1.90;;;;;;;21.56;nan;100316.47;5011126;28;20063;-73
2022/05/02 13:48:22;;;;;;;5.80;1.85;;;;;;;21.51;nan;100297.03;5046111;28;20033;-71
2022/05/02 13:50:54;;;;;;;2.47;1.80;;;;;;;21.56;nan;100302.28;5046912;28;20034;-72
2022/05/02 13:53:45;;;;;;;3.80;1.80;;;;;;;21.54;nan;100297.22;5050147;28;20048;-72
2022/05/02 13:56:31;;;;;;;4.13;2.17;;;;;;;21.61;nan;100267.34;5049695;28;20082;-74
2022/05/02 13:58:57;;;;;;;3.78;1.60;;;;;;;21.62;nan;100312.59;5050816;28;20053;-75
2022/05/02 14:01:39;;;;;;;4.22;1.70;;;;;;;21.63;nan;100313.41;5062047;28;20060;-74
2022/05/02 14:04:24;;;;;;;3.53;1.70;;;;;;;21.60;nan;100343.47;5034764;28;20045;-74
2022/05/02 14:09:47;;;;;;;2.42;1.60;;;;;;;21.67;nan;100248.19;5050348;28;20360;-71
2022/05/02 14:12:18;;;;;;;4.38;1.70;;;;;;;21.76;nan;100295.69;5035919;28;20033;-72
2022/05/02 14:15:00;;;;;;;6.05;1.70;;;;;;;21.78;nan;100290.81;5051125;28;20037;-72
2022/05/02 14:17:34;;;;;;;6.38;1.70;;;;;;;21.73;nan;100264.13;5046959;28;20033;-72
2022/05/02 14:20:23;;;;;;;2.00;1.63;;;;;;;21.66;nan;100268.00;5055549;28;20033;-72
2022/05/02 14:23:03;;;;;;;2.45;1.90;;;;;;;21.62;nan;100250.16;5047007;28;20450;-72
2022/05/02 14:25:41;;;;;;;5.43;1.67;;;;;;;21.63;nan;100267.84;5033202;28;20092;-71
2022/05/02 14:28:07;;;;;;;3.40;1.67;;;;;;;21.64;nan;100266.72;5050982;28;20124;-72
2022/05/02 14:30:38;;;;;;;3.75;1.88;;;;;;;21.60;nan;100253.16;5045312;28;20128;-71
2022/05/02 14:33:15;;;;;;;4.20;1.80;;;;;;;21.58;nan;100265.28;5026554;28;20045;-71
2022/05/02 14:35:44;;;;;;;6.13;2.00;;;;;;;21.50;nan;100300.81;5033494;28;20032;-72